createdAt,value
2019-01-11T00:01:49.516Z,13.87
2019-01-11T00:04:22.661Z,21.10
2019-01-11T00:06:55.567Z,16.13
2019-01-11T00:09:28.132Z,16.50
2019-01-11T00:12:00.091Z,16.47
2019-01-11T00:14:33.173Z,19.57
2019-01-11T00:17:05.741Z,15.50
2019-01-11T00:19:37.922Z,15.20
2019-01-11T00:22:10.604Z,13.57
2019-01-11T00:24:43.845Z,15.03
2019-01-11T00:27:16.383Z,13.50
2019-01-11T00:29:49.370Z,12.93
2019-01-11T00:32:22.584Z,17.17
2019-01-11T00:34:54.880Z,14.03
2019-01-11T00:37:27.604Z,12.97
2019-01-11T00:39:59.396Z,21.63
2019-01-11T00:42:32.165Z,9.47
2019-01-11T00:45:04.362Z,20.40
2019-01-11T00:47:36.597Z,12.67
2019-01-11T00:50:09.691Z,18.07
2019-01-11T00:52:42.365Z,20.00
2019-01-11T00:55:14.943Z,14.33
2019-01-11T00:57:46.726Z,13.20
2019-01-11T01:00:21.477Z,7.07
2019-01-11T01:02:54.069Z,9.93
2019-01-11T01:05:26.285Z,14.87
2019-01-11T01:07:58.599Z,17.97
2019-01-11T01:10:30.991Z,17.60
2019-01-11T01:13:03.585Z,18.83
2019-01-11T01:15:36.178Z,16.63
2019-01-11T01:18:08.310Z,13.63
2019-01-11T01:20:40.498Z,12.83
2019-01-11T01:23:12.750Z,16.70
2019-01-11T01:25:45.251Z,19.97
2019-01-11T01:28:17.422Z,13.13
2019-01-11T01:30:50.005Z,7.77
2019-01-11T01:33:22.753Z,15.60
2019-01-11T01:35:54.543Z,18.60
2019-01-11T01:38:27.522Z,19.67
2019-01-11T01:40:59.645Z,10.87
2019-01-11T01:43:33.357Z,12.33
2019-01-11T01:46:05.361Z,13.10
2019-01-11T01:48:37.976Z,20.17
2019-01-11T01:51:09.782Z,15.33
2019-01-11T01:53:42.323Z,16.67
2019-01-11T01:56:14.941Z,11.33
2019-01-11T01:58:46.779Z,22.77
2019-01-11T02:01:19.380Z,19.50
2019-01-11T02:03:51.229Z,14.97
2019-01-11T02:06:23.791Z,8.43
2019-01-11T02:08:55.716Z,11.43
2019-01-11T02:11:29.399Z,20.33
2019-01-11T02:14:02.040Z,15.70
2019-01-11T02:16:34.492Z,25.30
2019-01-11T02:19:06.352Z,12.80
2019-01-11T02:21:37.594Z,13.87
2019-01-11T02:24:09.366Z,26.67
2019-01-11T02:26:41.257Z,24.50
2019-01-11T02:29:13.445Z,17.20
2019-01-11T02:31:46.129Z,28.90
2019-01-11T02:34:19.963Z,15.50
2019-01-11T02:36:52.527Z,25.15
2019-01-11T02:39:24.650Z,17.13
2019-01-11T02:41:57.899Z,15.73
2019-01-11T02:44:30.050Z,28.00
2019-01-11T02:47:02.371Z,19.62
2019-01-11T02:49:39.925Z,9.67
2019-01-11T02:52:08.150Z,21.40
2019-01-11T02:54:40.008Z,24.47
2019-01-11T02:57:11.892Z,21.27
2019-01-11T02:59:43.818Z,26.70
2019-01-11T03:02:16.296Z,29.17
2019-01-11T03:04:48.777Z,15.38
2019-01-11T03:07:20.905Z,20.65
2019-01-11T03:09:53.522Z,25.23
2019-01-11T03:12:25.831Z,26.63
2019-01-11T03:14:57.609Z,24.90
2019-01-11T03:17:29.880Z,17.67
2019-01-11T03:20:01.978Z,21.93
2019-01-11T03:22:33.748Z,25.50
2019-01-11T03:25:07.591Z,11.08
2019-01-11T03:27:39.764Z,23.15
2019-01-11T03:30:18.602Z,20.05
2019-01-11T03:32:51.492Z,18.12
2019-01-11T03:35:23.342Z,14.50
2019-01-11T03:37:55.449Z,23.92
2019-01-11T03:40:29.035Z,14.65
2019-01-11T03:43:00.795Z,24.80
2019-01-11T03:45:33.725Z,20.80
2019-01-11T03:48:05.344Z,33.65
2019-01-11T03:50:38.123Z,24.80
2019-01-11T03:53:10.584Z,21.93
2019-01-11T03:55:41.693Z,23.85
2019-01-11T03:58:13.126Z,30.70
2019-01-11T04:00:45.216Z,5.03
2019-01-11T04:03:17.647Z,8.98
2019-01-11T04:05:50.436Z,11.60
2019-01-11T04:08:21.637Z,12.07
2019-01-11T04:10:54.185Z,25.40
2019-01-11T04:13:30.475Z,22.60
2019-01-11T04:16:00.547Z,23.55
2019-01-11T04:18:33.583Z,20.45
2019-01-11T04:21:05.359Z,10.65
2019-01-11T04:23:38.385Z,17.73
2019-01-11T04:26:11.143Z,16.15
2019-01-11T04:28:43.388Z,24.12
2019-01-11T04:31:15.303Z,16.73
2019-01-11T04:33:47.519Z,15.28
2019-01-11T04:36:19.310Z,20.20
2019-01-11T04:38:51.138Z,15.53
2019-01-11T04:41:23.860Z,22.87
2019-01-11T04:43:55.461Z,13.93
2019-01-11T04:46:27.562Z,21.37
2019-01-11T04:48:58.687Z,21.57
2019-01-11T04:51:31.296Z,27.32
2019-01-11T04:54:03.015Z,25.43
2019-01-11T04:56:36.022Z,24.32
2019-01-11T04:59:09.052Z,27.62
2019-01-11T05:01:41.154Z,23.80
2019-01-11T05:04:14.020Z,22.45
2019-01-11T05:06:46.088Z,23.27
2019-01-11T05:09:17.977Z,29.87
2019-01-11T05:11:50.119Z,7.58
2019-01-11T05:14:21.955Z,17.77
2019-01-11T05:16:54.182Z,15.50
2019-01-11T05:19:26.884Z,20.17
2019-01-11T05:21:59.382Z,31.23
2019-01-11T05:24:30.883Z,26.12
2019-01-11T05:27:03.094Z,31.12
2019-01-11T05:29:34.847Z,25.75
2019-01-11T05:32:07.601Z,23.57
2019-01-11T05:34:41.713Z,17.45
2019-01-11T05:37:17.368Z,25.95
2019-01-11T05:39:49.307Z,21.10
2019-01-11T05:42:22.133Z,22.23
2019-01-11T05:44:54.429Z,26.48
2019-01-11T05:47:27.138Z,12.28
2019-01-11T05:49:59.783Z,33.78
2019-01-11T05:52:31.890Z,26.27
2019-01-11T05:55:04.184Z,24.12
2019-01-11T05:57:36.139Z,28.20
2019-01-11T06:00:08.856Z,28.00
2019-01-11T06:02:40.672Z,27.75
2019-01-11T06:05:13.851Z,30.60
2019-01-11T06:07:50.964Z,26.68
2019-01-11T06:10:23.508Z,28.98
2019-01-11T06:12:56.013Z,27.30
2019-01-11T06:15:29.378Z,32.17
2019-01-11T06:18:01.546Z,31.00
2019-01-11T06:20:35.549Z,34.73
2019-01-11T06:23:07.497Z,35.40
2019-01-11T06:25:39.339Z,32.80
2019-01-11T06:28:12.244Z,37.53
2019-01-11T06:30:44.073Z,32.00
2019-01-11T06:33:17.163Z,17.37
2019-01-11T06:35:50.262Z,31.17
2019-01-11T06:38:23.202Z,10.95
2019-01-11T06:40:55.057Z,20.20
2019-01-11T06:43:27.331Z,28.85
2019-01-11T06:46:00.610Z,23.83
2019-01-11T06:48:51.355Z,29.92
2019-01-11T06:51:23.188Z,12.63
2019-01-11T06:53:55.867Z,25.65
2019-01-11T06:56:28.622Z,19.70
2019-01-11T06:59:03.251Z,25.62
2019-01-11T07:01:36.059Z,27.25
2019-01-11T07:04:08.214Z,19.40
2019-01-11T07:06:41.408Z,25.23
2019-01-11T07:09:13.688Z,22.22
2019-01-11T07:11:45.474Z,34.92
2019-01-11T07:14:17.630Z,14.10
2019-01-11T07:16:48.893Z,18.10
2019-01-11T07:19:21.001Z,12.28
2019-01-11T07:21:53.091Z,13.48
2019-01-11T07:24:25.396Z,29.90
2019-01-11T07:26:57.962Z,7.08
2019-01-11T07:29:29.844Z,25.00
2019-01-11T07:32:02.753Z,18.30
2019-01-11T07:34:34.954Z,11.12
2019-01-11T07:37:07.614Z,6.25
2019-01-11T07:39:39.884Z,13.53
2019-01-11T07:42:12.218Z,16.15
2019-01-11T07:44:44.186Z,9.33
2019-01-11T07:47:16.639Z,14.07
2019-01-11T07:49:49.914Z,20.97
2019-01-11T07:52:21.693Z,11.78
2019-01-11T07:54:56.050Z,23.57
2019-01-11T07:57:28.586Z,22.32
2019-01-11T08:00:01.250Z,10.38
2019-01-11T08:02:34.403Z,15.78
2019-01-11T08:05:07.754Z,11.68
2019-01-11T08:07:39.929Z,16.00
2019-01-11T08:10:12.754Z,25.32
2019-01-11T08:12:44.300Z,13.58
2019-01-11T08:15:56.141Z,19.05
2019-01-11T08:18:29.083Z,18.52
2019-01-11T08:21:00.917Z,8.18
2019-01-11T08:23:32.768Z,15.03
2019-01-11T08:26:05.061Z,20.02
2019-01-11T08:28:36.987Z,16.80
2019-01-11T08:31:10.334Z,13.85
2019-01-11T08:33:43.139Z,19.95
2019-01-11T08:36:15.205Z,17.90
2019-01-11T08:38:47.065Z,14.15
2019-01-11T08:41:19.695Z,12.93
2019-01-11T08:43:52.208Z,15.70
2019-01-11T08:46:24.502Z,15.55
2019-01-11T08:48:56.336Z,14.30
2019-01-11T08:51:29.284Z,13.80
2019-01-11T08:54:01.126Z,15.23
2019-01-11T08:56:34.412Z,14.10
2019-01-11T08:59:06.377Z,12.58
2019-01-11T09:01:39.375Z,2.77
2019-01-11T09:04:12.049Z,7.60
2019-01-11T09:06:44.682Z,9.83
2019-01-11T09:09:16.758Z,6.40
2019-01-11T09:11:48.680Z,6.95
2019-01-11T09:14:39.452Z,7.80
2019-01-11T09:17:11.756Z,8.33
2019-01-11T09:19:44.526Z,3.75
2019-01-11T09:22:18.491Z,7.10
2019-01-11T09:24:52.312Z,4.97
2019-01-11T09:27:24.942Z,4.72
2019-01-11T09:29:57.236Z,6.95
2019-01-11T09:32:28.828Z,4.03
2019-01-11T09:35:01.649Z,7.50
2019-01-11T09:37:33.576Z,6.65
2019-01-11T09:40:05.947Z,6.30
2019-01-11T09:42:38.364Z,6.05
2019-01-11T09:45:11.791Z,4.95
2019-01-11T09:47:44.531Z,4.97
2019-01-11T09:50:18.438Z,7.75
2019-01-11T09:52:50.907Z,7.03
2019-01-11T09:55:23.634Z,4.33
2019-01-11T09:57:56.708Z,2.67
2019-01-11T10:00:29.356Z,6.05
2019-01-11T10:03:06.912Z,5.83
2019-01-11T10:05:40.105Z,1.65
2019-01-11T10:08:12.942Z,4.40
2019-01-11T10:10:45.338Z,4.10
2019-01-11T10:13:18.539Z,3.58
2019-01-11T10:15:51.332Z,8.10
2019-01-11T10:18:23.277Z,5.37
2019-01-11T10:20:54.589Z,5.28
2019-01-11T10:23:28.250Z,4.15
2019-01-11T10:26:00.622Z,5.58
2019-01-11T10:28:34.071Z,4.28
2019-01-11T10:31:06.478Z,5.00
2019-01-11T10:33:38.613Z,7.40
2019-01-11T10:36:10.049Z,1.70
2019-01-11T10:38:42.388Z,4.72
2019-01-11T10:41:14.371Z,5.47
2019-01-11T10:43:46.835Z,6.03
2019-01-11T10:46:35.324Z,3.98
2019-01-11T10:49:07.753Z,5.72
2019-01-11T10:51:40.888Z,4.60
2019-01-11T10:54:22.092Z,4.53
2019-01-11T10:56:54.526Z,1.85
2019-01-11T10:59:27.609Z,5.58
2019-01-11T11:02:00.896Z,14.15
2019-01-11T11:04:33.655Z,5.40
2019-01-11T11:07:06.447Z,7.35
2019-01-11T11:09:39.492Z,6.67
2019-01-11T11:12:11.500Z,6.08
2019-01-11T11:14:43.518Z,4.67
2019-01-11T11:17:18.258Z,7.85
2019-01-11T11:19:50.512Z,3.65
2019-01-11T11:22:23.578Z,5.15
2019-01-11T11:24:55.936Z,3.00
2019-01-11T11:27:49.139Z,5.80
2019-01-11T11:30:23.325Z,5.97
2019-01-11T11:32:57.519Z,2.83
2019-01-11T11:35:31.606Z,3.67
2019-01-11T11:38:03.476Z,4.62
2019-01-11T11:40:35.899Z,8.20
2019-01-11T11:43:08.245Z,5.33
2019-01-11T11:45:41.043Z,8.15
2019-01-11T11:48:12.761Z,4.20
2019-01-11T11:50:45.461Z,6.55
2019-01-11T11:53:18.645Z,5.22
2019-01-11T11:55:51.678Z,3.25
2019-01-11T11:58:23.780Z,6.90
2019-01-11T12:00:56.061Z,7.20
2019-01-11T12:03:27.675Z,11.15
2019-01-11T12:06:00.322Z,9.35
2019-01-11T12:08:32.497Z,5.37
2019-01-11T12:11:06.462Z,5.30
2019-01-11T12:13:39.462Z,7.92
2019-01-11T12:16:12.098Z,10.95
2019-01-11T12:18:44.965Z,7.85
2019-01-11T12:24:10.695Z,11.30
2019-01-11T12:26:44.474Z,11.05
2019-01-11T12:29:17.352Z,5.03
2019-01-11T12:31:50.550Z,10.28
2019-01-11T12:34:23.002Z,4.08
2019-01-11T12:36:56.500Z,20.88
2019-01-11T12:39:29.221Z,7.45
2019-01-11T12:42:02.162Z,15.72
2019-01-11T12:44:36.484Z,5.87
2019-01-11T12:47:08.399Z,14.58
2019-01-11T12:49:40.379Z,9.15
2019-01-11T12:52:13.188Z,10.75
2019-01-11T12:54:45.869Z,7.50
2019-01-11T12:57:19.184Z,11.45
2019-01-11T12:59:51.704Z,8.30
2019-01-11T13:02:24.676Z,16.00
2019-01-11T13:04:57.346Z,14.53
2019-01-11T13:07:29.346Z,5.25
2019-01-11T13:10:01.750Z,10.80
2019-01-11T13:12:35.221Z,14.83
2019-01-11T13:15:10.625Z,23.47
2019-01-11T13:17:42.679Z,15.43
2019-01-11T13:20:17.280Z,15.50
2019-01-11T13:22:50.741Z,16.23
2019-01-11T13:25:32.313Z,15.28
2019-01-11T13:28:04.678Z,14.00
2019-01-11T13:30:36.691Z,9.20
2019-01-11T13:33:09.518Z,6.63
2019-01-11T13:35:42.199Z,13.45
2019-01-11T13:38:14.479Z,20.68
2019-01-11T13:40:46.938Z,18.20
2019-01-11T13:43:18.968Z,16.70
2019-01-11T13:45:51.530Z,15.88
2019-01-11T13:48:23.927Z,12.60
2019-01-11T13:50:56.778Z,15.58
2019-01-11T13:53:30.193Z,17.37
2019-01-11T13:56:03.265Z,22.93
2019-01-11T13:58:37.247Z,15.72
2019-01-11T14:01:15.590Z,20.45
2019-01-11T14:03:48.081Z,7.78
2019-01-11T14:06:23.290Z,15.32
2019-01-11T14:08:56.319Z,18.77
2019-01-11T14:11:28.748Z,23.42
2019-01-11T14:14:01.673Z,23.32
2019-01-11T14:16:34.391Z,22.42
2019-01-11T14:19:06.913Z,21.57
2019-01-11T14:21:39.933Z,22.05
2019-01-11T14:24:12.745Z,15.45
2019-01-11T14:26:44.761Z,24.50
2019-01-11T14:29:17.310Z,13.43
2019-01-11T14:31:51.516Z,27.20
2019-01-11T14:34:23.775Z,6.15
2019-01-11T14:36:56.793Z,25.65
2019-01-11T14:39:30.423Z,12.85
2019-01-11T14:42:03.075Z,34.67
2019-01-11T14:44:35.721Z,18.10
2019-01-11T14:47:08.020Z,27.27
2019-01-11T14:49:40.247Z,21.97
2019-01-11T14:52:20.167Z,18.07
2019-01-11T14:54:48.442Z,11.85
2019-01-11T14:57:22.198Z,23.65
2019-01-11T14:59:55.499Z,27.70
2019-01-11T15:02:28.948Z,11.53
2019-01-11T15:05:03.017Z,16.93
2019-01-11T15:07:36.309Z,23.05
2019-01-11T15:10:10.771Z,24.27
2019-01-11T15:12:45.285Z,19.07
2019-01-11T15:15:18.930Z,23.47
2019-01-11T15:17:51.622Z,25.00
2019-01-11T15:20:26.471Z,18.50
2019-01-11T15:22:59.350Z,14.10
2019-01-11T15:25:34.584Z,17.52
2019-01-11T15:28:08.654Z,17.25
2019-01-11T15:30:42.168Z,28.07
2019-01-11T15:33:14.947Z,27.85
2019-01-11T15:35:49.794Z,14.38
2019-01-11T15:38:22.927Z,22.25
2019-01-11T15:40:57.551Z,26.73
2019-01-11T15:43:30.154Z,15.48
2019-01-11T15:46:15.041Z,16.30
2019-01-11T15:48:51.442Z,14.53
2019-01-11T15:51:27.601Z,16.40
2019-01-11T15:54:03.339Z,10.32
2019-01-11T15:56:36.644Z,15.40
2019-01-11T15:59:09.720Z,22.90
2019-01-11T16:01:42.228Z,39.78
2019-01-11T16:04:14.773Z,32.75
2019-01-11T16:06:49.611Z,32.20
2019-01-11T16:10:06.025Z,35.17
2019-01-11T16:13:11.915Z,26.97
2019-01-11T16:16:25.766Z,31.33
2019-01-11T16:19:00.369Z,26.90
2019-01-11T16:21:32.190Z,16.77
2019-01-11T16:24:05.153Z,23.53
2019-01-11T16:26:37.294Z,14.15
2019-01-11T16:29:10.028Z,25.48
2019-01-11T16:31:43.889Z,27.50
2019-01-11T16:34:15.878Z,27.83
2019-01-11T16:36:51.846Z,30.43
2019-01-11T16:39:24.670Z,30.35
2019-01-11T16:41:58.018Z,29.05
2019-01-11T16:44:29.887Z,30.57
2019-01-11T16:47:02.331Z,30.52
2019-01-11T16:49:34.358Z,35.25
2019-01-11T16:52:07.229Z,30.88
2019-01-11T16:54:53.927Z,16.12
2019-01-11T16:57:27.024Z,24.35
2019-01-11T17:00:00.101Z,26.35
2019-01-11T17:02:36.720Z,31.73
2019-01-11T17:05:10.187Z,25.43
2019-01-11T17:07:43.116Z,29.77
2019-01-11T17:10:17.011Z,28.12
2019-01-11T17:12:50.523Z,29.77
2019-01-11T17:15:22.880Z,29.07
2019-01-11T17:17:55.547Z,19.90
2019-01-11T17:20:28.102Z,32.05
2019-01-11T17:23:01.551Z,32.03
2019-01-11T17:25:34.678Z,25.55
2019-01-11T17:28:07.859Z,30.35
2019-01-11T17:30:41.312Z,26.77
2019-01-11T17:33:14.803Z,31.43
2019-01-11T17:35:48.396Z,35.63
2019-01-11T17:38:21.049Z,38.88
2019-01-11T17:40:53.934Z,33.42
2019-01-11T17:43:26.653Z,30.48
2019-01-11T17:45:58.836Z,5.45
2019-01-11T17:48:32.598Z,36.58
2019-01-11T17:51:04.876Z,32.13
2019-01-11T17:53:37.881Z,8.40
2019-01-11T17:56:10.731Z,20.15
2019-01-11T17:58:44.442Z,21.37
2019-01-11T18:01:17.508Z,35.30
2019-01-11T18:03:51.051Z,19.48
2019-01-11T18:06:26.054Z,40.48
2019-01-11T18:08:58.939Z,30.17
2019-01-11T18:11:31.541Z,23.85
2019-01-11T18:14:03.975Z,33.87
2019-01-11T18:16:36.232Z,31.00
2019-01-11T18:19:08.173Z,35.77
2019-01-11T18:21:41.043Z,33.70
2019-01-11T18:24:14.298Z,26.43
2019-01-11T18:26:47.480Z,29.35
2019-01-11T18:29:20.055Z,34.03
2019-01-11T18:31:58.737Z,32.45
2019-01-11T18:34:31.948Z,25.15
2019-01-11T18:37:07.028Z,18.92
2019-01-11T18:39:39.401Z,33.20
2019-01-11T18:42:14.018Z,18.62
2019-01-11T18:44:46.772Z,35.35
2019-01-11T18:47:19.857Z,25.67
2019-01-11T18:49:52.590Z,21.50
2019-01-11T18:52:26.588Z,25.75
2019-01-11T18:55:00.961Z,27.87
2019-01-11T18:57:34.070Z,29.27
2019-01-11T19:00:14.334Z,29.80
2019-01-11T19:02:48.665Z,28.33
2019-01-11T19:05:21.701Z,18.12
2019-01-11T19:07:55.324Z,33.30
2019-01-11T19:10:27.769Z,18.20
2019-01-11T19:12:59.641Z,18.80
2019-01-11T19:15:34.943Z,36.90
2019-01-11T19:18:08.948Z,23.95
2019-01-11T19:20:41.289Z,19.97
2019-01-11T19:23:20.410Z,15.05
2019-01-11T19:25:50.148Z,29.40
2019-01-11T19:28:24.317Z,27.25
2019-01-11T19:30:57.296Z,31.87
2019-01-11T19:33:29.497Z,42.70
2019-01-11T19:36:02.207Z,28.23
2019-01-11T19:38:35.063Z,19.77
2019-01-11T19:41:07.806Z,7.47
2019-01-11T19:43:40.549Z,21.07
2019-01-11T19:46:13.618Z,31.37
2019-01-11T19:48:47.442Z,25.03
2019-01-11T19:51:19.727Z,21.95
2019-01-11T19:53:52.384Z,29.37
2019-01-11T19:56:25.575Z,9.53
2019-01-11T19:58:58.358Z,28.55
2019-01-11T20:01:32.608Z,28.47
2019-01-11T20:04:05.453Z,9.95
2019-01-11T20:06:38.836Z,18.50
2019-01-11T20:09:12.189Z,30.12
2019-01-11T20:11:44.523Z,29.10
2019-01-11T20:14:17.257Z,31.57
2019-01-11T20:16:50.260Z,29.83
2019-01-11T20:19:23.067Z,28.20
2019-01-11T20:21:55.923Z,27.77
2019-01-11T20:24:28.700Z,23.37
2019-01-11T20:27:02.971Z,28.20
2019-01-11T20:29:36.545Z,30.60
2019-01-11T20:32:08.913Z,28.83
2019-01-11T20:34:41.506Z,30.57
2019-01-11T20:37:43.178Z,26.20
2019-01-11T20:40:17.445Z,25.53
2019-01-11T20:42:50.454Z,26.87
2019-01-11T20:45:26.327Z,21.20
2019-01-11T20:47:59.237Z,29.00
2019-01-11T20:50:32.075Z,26.00
2019-01-11T20:53:04.887Z,20.25
2019-01-11T20:55:37.129Z,18.23
2019-01-11T20:58:09.894Z,21.33
2019-01-11T21:00:43.717Z,26.77
2019-01-11T21:03:17.603Z,19.95
2019-01-11T21:05:51.736Z,13.68
2019-01-11T21:08:24.005Z,25.10
2019-01-11T21:10:57.476Z,15.93
2019-01-11T21:13:30.617Z,25.33
2019-01-11T21:16:03.089Z,23.60
2019-01-11T21:18:36.506Z,17.57
2019-01-11T21:21:10.638Z,8.23
2019-01-11T21:23:48.710Z,15.53
2019-01-11T21:26:19.431Z,27.67
2019-01-11T21:28:52.161Z,31.45
2019-01-11T21:31:25.234Z,24.15
2019-01-11T21:33:58.372Z,14.27
2019-01-11T21:36:32.209Z,11.03
2019-01-11T21:39:06.279Z,13.72
2019-01-11T21:41:41.015Z,27.87
2019-01-11T21:44:14.200Z,36.50
2019-01-11T21:46:46.817Z,23.27
2019-01-11T21:49:19.486Z,32.13
2019-01-11T21:51:52.149Z,20.75
2019-01-11T21:54:25.145Z,12.13
2019-01-11T21:56:59.324Z,21.40
2019-01-11T21:59:32.991Z,27.25
2019-01-11T22:02:05.127Z,29.30
2019-01-11T22:04:37.455Z,28.73
2019-01-11T22:07:10.067Z,22.60
2019-01-11T22:09:43.120Z,28.30
2019-01-11T22:12:15.462Z,21.10
2019-01-11T22:14:48.176Z,26.70
2019-01-11T22:17:21.876Z,20.30
2019-01-11T22:19:54.495Z,17.87
2019-01-11T22:22:28.617Z,22.90
2019-01-11T22:25:01.289Z,19.87
2019-01-11T22:27:34.576Z,21.37
2019-01-11T22:30:13.391Z,16.17
2019-01-11T22:32:45.698Z,14.87
2019-01-11T22:35:19.163Z,29.90
2019-01-11T22:37:52.866Z,20.45
2019-01-11T22:40:26.821Z,18.17
2019-01-11T22:43:01.415Z,17.62
2019-01-11T22:45:34.645Z,11.63
2019-01-11T22:48:06.974Z,15.20
2019-01-11T22:50:40.728Z,19.55
2019-01-11T22:53:13.542Z,29.93
2019-01-11T22:55:46.188Z,28.03
2019-01-11T22:58:19.292Z,19.50
2019-01-11T23:01:43.212Z,28.03
2019-01-11T23:04:18.557Z,20.63
2019-01-11T23:07:16.301Z,20.77
2019-01-11T23:10:07.609Z,30.80
2019-01-11T23:13:00.256Z,22.30
2019-01-11T23:15:37.427Z,22.57
2019-01-11T23:18:17.298Z,15.37
2019-01-11T23:20:53.462Z,22.93
2019-01-11T23:23:26.319Z,26.48
2019-01-11T23:26:00.015Z,28.17
2019-01-11T23:28:32.652Z,23.02
2019-01-11T23:31:05.518Z,18.87
2019-01-11T23:33:38.278Z,48.10
2019-01-11T23:36:11.242Z,20.40
2019-01-11T23:38:44.122Z,28.63
2019-01-11T23:41:16.739Z,18.87
2019-01-11T23:43:49.363Z,33.57
2019-01-11T23:48:59.626Z,24.00
2019-01-11T23:51:32.643Z,31.80
2019-01-11T23:54:05.863Z,23.63
2019-01-11T23:56:38.808Z,25.83
2019-01-11T23:59:10.742Z,23.73
